Time;durP1;ratioP1;P1;durP2;ratioP2;P2;SDS_P1;SDS_P2;PMS_P1;PMS_P2;Temp;Humidity;BMP_temperature;BMP_pressure;BME280_temperature;BME280_humidity;BME280_pressure;Samples;Min_cycle;Max_cycle;Signal;HPM_P1;HPM_P2
2022/05/02 00:00:17;;;;;;;;;;;;;;;8.58;50.25;99313.75;5015406;28;19940;-61
2022/05/02 00:02:43;;;;;;;;;;;;;;;8.61;50.25;99315.13;5015679;28;20023;-60
2022/05/02 00:05:08;;;;;;;;;;;;;;;8.59;50.23;99320.66;5015379;28;19929;-62
2022/05/02 00:07:34;;;;;;;;;;;;;;;8.58;50.19;99315.59;5031959;28;19941;-63
2022/05/02 00:10:00;;;;;;;;;;;;;;;8.56;50.25;99321.13;5033028;28;19932;-63
2022/05/02 00:12:25;;;;;;;;;;;;;;;8.52;50.33;99316.50;5033203;28;19929;-62
2022/05/02 00:14:51;;;;;;;;;;;;;;;8.49;50.32;99314.31;5032919;28;20011;-61
2022/05/02 00:17:16;;;;;;;;;;;;;;;8.48;50.71;99316.16;5033162;28;19936;-62
2022/05/02 00:19:42;;;;;;;;;;;;;;;8.47;50.55;99313.72;5033180;28;19925;-61
2022/05/02 00:22:07;;;;;;;;;;;;;;;8.41;50.59;99310.13;5031690;28;20368;-61
2022/05/02 00:24:33;;;;;;;;;;;;;;;8.42;51.29;99309.13;5033031;28;20032;-61
2022/05/02 00:26:58;;;;;;;;;;;;;;;8.43;51.12;99308.09;5032708;28;19940;-61
2022/05/02 00:29:24;;;;;;;;;;;;;;;8.40;51.15;99303.25;5031409;28;19952;-61
2022/05/02 00:31:50;;;;;;;;;;;;;;;8.34;51.87;99304.13;5014537;28;20301;-60
2022/05/02 00:34:15;;;;;;;;;;;;;;;8.32;51.75;99301.69;5032597;28;19925;-62
2022/05/02 00:36:41;;;;;;;;;;;;;;;8.33;51.11;99298.03;5032649;28;19980;-62
2022/05/02 00:39:06;;;;;;;;;;;;;;;8.33;51.03;99308.59;5032605;28;19925;-61
2022/05/02 00:41:32;;;;;;;;;;;;;;;8.30;51.09;99300.31;5032499;28;19936;-62
2022/05/02 00:43:58;;;;;;;;;;;;;;;8.23;51.25;99303.03;5032635;28;20031;-62
2022/05/02 00:46:24;;;;;;;;;;;;;;;8.14;51.74;99297.25;5032396;28;19951;-61
2022/05/02 00:48:50;;;;;;;;;;;;;;;8.06;51.79;99302.03;5032941;28;19925;-63
2022/05/02 00:51:15;;;;;;;;;;;;;;;7.95;52.13;99296.50;5032446;28;19933;-62
2022/05/02 00:53:45;;;;;;;;;;;;;;;7.84;52.70;99297.25;5032280;28;20381;-62
2022/05/02 00:56:10;;;;;;;;;;;;;;;7.72;52.79;99305.09;5030799;28;19932;-61
2022/05/02 00:58:36;;;;;;;;;;;;;;;7.64;53.51;99304.56;5031935;28;19925;-62
2022/05/02 01:01:02;;;;;;;;;;;;;;;7.56;53.59;99305.69;5031829;28;19932;-61
2022/05/02 01:03:28;;;;;;;;;;;;;;;7.45;54.29;99303.78;5032310;28;19925;-63
2022/05/02 01:08:39;;;;;;;;;;;;;;;7.28;54.56;99298.25;5031041;28;19929;-62
2022/05/02 01:11:05;;;;;;;;;;;;;;;7.23;55.21;99300.72;5030978;28;19970;-61
2022/05/02 01:13:35;;;;;;;;;;;;;;;7.16;55.07;99311.34;5032011;28;20402;-61
2022/05/02 01:16:06;;;;;;;;;;;;;;;7.09;55.46;99304.50;5030485;28;19932;-61
2022/05/02 01:18:31;;;;;;;;;;;;;;;6.98;56.21;99303.41;5031985;28;20390;-61
2022/05/02 01:20:57;;;;;;;;;;;;;;;6.92;56.57;99304.28;5030445;28;20022;-61
2022/05/02 01:23:22;;;;;;;;;;;;;;;6.88;56.80;99303.06;5031866;28;19936;-61
2022/05/02 01:25:48;;;;;;;;;;;;;;;6.86;57.28;99307.78;5032126;28;19925;-61
2022/05/02 01:28:13;;;;;;;;;;;;;;;6.88;56.67;99303.88;5032267;28;19975;-60
2022/05/02 01:30:39;;;;;;;;;;;;;;;6.84;57.12;99307.97;5030642;28;19975;-61
2022/05/02 01:33:04;;;;;;;;;;;;;;;6.86;57.23;99308.56;5032120;28;19929;-62
2022/05/02 01:35:30;;;;;;;;;;;;;;;6.87;57.55;99307.53;5031589;28;20341;-61
2022/05/02 01:37:55;;;;;;;;;;;;;;;6.90;57.62;99307.09;5032096;28;19929;-63
2022/05/02 01:40:21;;;;;;;;;;;;;;;6.88;58.32;99306.50;5030724;28;19925;-61
2022/05/02 01:42:46;;;;;;;;;;;;;;;6.88;57.83;99306.50;5031592;28;20044;-60
2022/05/02 01:45:11;;;;;;;;;;;;;;;6.90;58.59;99301.84;5035640;28;19972;-61
2022/05/02 01:47:37;;;;;;;;;;;;;;;6.92;58.14;99305.06;5035788;28;19964;-61
2022/05/02 01:50:03;;;;;;;;;;;;;;;6.99;58.27;99307.66;5034502;28;19925;-61
2022/05/02 01:52:28;;;;;;;;;;;;;;;6.94;58.17;99312.75;5034499;28;19933;-61
2022/05/02 01:54:54;;;;;;;;;;;;;;;6.96;58.29;99308.88;5035490;28;20023;-62
2022/05/02 01:57:19;;;;;;;;;;;;;;;7.04;57.69;99305.19;5050841;28;20024;-61
2022/05/02 01:59:45;;;;;;;;;;;;;;;7.06;58.04;99305.78;5035517;28;20388;-61
2022/05/02 02:02:10;;;;;;;;;;;;;;;7.07;58.08;99309.22;5035670;28;20366;-61
2022/05/02 02:07:20;;;;;;;;;;;;;;;7.13;58.01;99303.88;5035546;28;19960;-61
2022/05/02 02:09:45;;;;;;;;;;;;;;;7.16;57.65;99308.72;5035323;28;19967;-62
2022/05/02 02:12:11;;;;;;;;;;;;;;;7.19;57.99;99308.28;5035589;28;19929;-61
2022/05/02 02:14:36;;;;;;;;;;;;;;;7.23;57.53;99311.28;5035246;28;19925;-62
2022/05/02 02:17:02;;;;;;;;;;;;;;;7.18;57.33;99303.25;5035233;28;19948;-62
2022/05/02 02:19:27;;;;;;;;;;;;;;;7.18;57.82;99309.31;5035173;28;19925;-61
2022/05/02 02:22:16;;;;;;;;;;;;;;;7.24;57.81;99310.28;5033882;28;19925;-61
2022/05/02 02:24:38;;;;;;;;;;;;;;;7.32;57.83;99303.91;5034045;28;20409;-61
2022/05/02 02:27:04;;;;;;;;;;;;;;;7.34;57.69;99304.50;5033745;28;19972;-61
2022/05/02 02:29:30;;;;;;;;;;;;;;;7.35;57.85;99306.09;5034891;28;20397;-62
2022/05/02 02:31:55;;;;;;;;;;;;;;;7.36;57.45;99305.91;5034999;28;19929;-61
2022/05/02 02:34:20;;;;;;;;;;;;;;;7.39;57.14;99305.47;5034851;28;20287;-60
2022/05/02 02:36:46;;;;;;;;;;;;;;;7.48;56.79;99305.97;5035059;28;19933;-61
2022/05/02 02:39:11;;;;;;;;;;;;;;;7.56;57.49;99307.50;5033875;28;20428;-62
2022/05/02 02:41:37;;;;;;;;;;;;;;;7.55;57.25;99309.34;5034706;28;19972;-62
2022/05/02 02:44:02;;;;;;;;;;;;;;;7.60;57.68;99312.13;5034923;28;19925;-61
2022/05/02 02:46:28;;;;;;;;;;;;;;;7.67;56.95;99309.41;5034556;28;19925;-61
2022/05/02 02:48:53;;;;;;;;;;;;;;;7.69;56.95;99313.44;5034566;28;19925;-61
2022/05/02 02:51:19;;;;;;;;;;;;;;;7.77;56.68;99316.84;5034568;28;20305;-61
2022/05/02 02:53:44;;;;;;;;;;;;;;;7.78;56.72;99313.97;5034519;28;19925;-62
2022/05/02 02:56:10;;;;;;;;;;;;;;;7.78;56.66;99323.72;5034025;28;19932;-62
2022/05/02 02:58:35;;;;;;;;;;;;;;;7.86;56.37;99312.88;5034502;28;19932;-62
2022/05/02 03:01:01;;;;;;;;;;;;;;;7.92;55.62;99309.34;5034509;28;19925;-61
2022/05/02 03:03:27;;;;;;;;;;;;;;;8.02;55.21;99306.16;5033022;28;19925;-61
2022/05/02 03:06:01;;;;;;;;;;;;;;;8.12;55.12;99311.75;5034546;28;19932;-62
2022/05/02 03:08:27;;;;;;;;;;;;;;;8.19;54.96;99309.81;5034502;28;19959;-61
2022/05/02 03:10:54;;;;;;;;;;;;;;;8.19;54.62;99312.44;5034119;28;20390;-61
2022/05/02 03:13:20;;;;;;;;;;;;;;;8.27;54.21;99314.78;5034076;28;20287;-60
2022/05/02 03:15:45;;;;;;;;;;;;;;;8.36;54.03;99313.44;5034276;28;19947;-64
2022/05/02 03:18:11;;;;;;;;;;;;;;;8.41;53.79;99318.88;5033838;28;20405;-60
2022/05/02 03:20:36;;;;;;;;;;;;;;;8.43;53.62;99313.38;5034219;28;19925;-61
2022/05/02 03:23:02;;;;;;;;;;;;;;;8.51;53.24;99320.19;5032876;28;19936;-61
2022/05/02 03:25:27;;;;;;;;;;;;;;;8.59;52.79;99318.03;5034170;28;20305;-61
2022/05/02 03:27:52;;;;;;;;;;;;;;;8.61;53.11;99328.34;5034193;28;19925;-60
2022/05/02 03:30:18;;;;;;;;;;;;;;;8.65;53.21;99316.31;5033807;28;19933;-61
2022/05/02 03:32:43;;;;;;;;;;;;;;;8.71;52.61;99318.03;5034123;28;19925;-61
2022/05/02 03:35:09;;;;;;;;;;;;;;;8.73;52.80;99326.53;5032481;28;19941;-61
2022/05/02 03:37:35;;;;;;;;;;;;;;;8.71;52.79;99323.34;5033932;28;20283;-62
2022/05/02 03:40:00;;;;;;;;;;;;;;;8.71;53.02;99328.63;5033874;28;19932;-61
2022/05/02 03:42:26;;;;;;;;;;;;;;;8.68;52.97;99326.44;5033838;28;19983;-61
2022/05/02 03:44:51;;;;;;;;;;;;;;;8.69;52.90;99319.31;5032338;28;19925;-62
2022/05/02 03:47:17;;;;;;;;;;;;;;;8.73;52.57;99328.38;5032342;28;20440;-62
2022/05/02 03:49:43;;;;;;;;;;;;;;;8.76;52.35;99335.84;5032399;28;19925;-62
2022/05/02 03:52:09;;;;;;;;;;;;;;;8.72;51.28;99322.28;5033459;28;19933;-61
2022/05/02 03:54:34;;;;;;;;;;;;;;;8.73;52.00;99331.03;5033617;28;19936;-61
2022/05/02 03:57:00;;;;;;;;;;;;;;;8.75;51.66;99336.91;5033348;28;20035;-62
2022/05/02 03:59:25;;;;;;;;;;;;;;;8.78;51.57;99331.16;5032101;28;20321;-63
2022/05/02 04:01:51;;;;;;;;;;;;;;;9.21;50.20;99328.22;5033414;28;19955;-61
2022/05/02 04:04:16;;;;;;;;;;;;;;;9.82;48.48;99320.78;5033350;28;20385;-63
2022/05/02 04:06:42;;;;;;;;;;;;;;;10.52;47.07;99337.50;5032548;28;19933;-60
2022/05/02 04:09:07;;;;;;;;;;;;;;;11.06;44.96;99335.22;5033032;28;20310;-63
2022/05/02 04:11:33;;;;;;;;;;;;;;;11.43;42.67;99337.38;5033028;28;19968;-60
2022/05/02 04:13:58;;;;;;;;;;;;;;;11.85;42.63;99334.22;5032851;28;20360;-61
2022/05/02 04:16:24;;;;;;;;;;;;;;;12.22;41.82;99340.53;5032751;28;19930;-62
2022/05/02 04:18:50;;;;;;;;;;;;;;;12.41;40.85;99332.22;5031643;28;19925;-61
2022/05/02 04:21:15;;;;;;;;;;;;;;;12.39;40.82;99337.78;5031346;28;19933;-63
2022/05/02 04:23:41;;;;;;;;;;;;;;;12.29;40.92;99340.31;5032683;28;19925;-61
2022/05/02 04:26:06;;;;;;;;;;;;;;;12.27;41.03;99339.78;5031674;28;19921;-61
2022/05/02 04:28:34;;;;;;;;;;;;;;;12.19;40.45;99348.19;5015268;28;20412;-61
2022/05/02 04:30:59;;;;;;;;;;;;;;;12.01;40.67;99331.53;5032764;28;20036;-62
2022/05/02 04:33:25;;;;;;;;;;;;;;;12.04;40.54;99333.69;5032386;28;19940;-61
2022/05/02 04:35:51;;;;;;;;;;;;;;;12.05;40.34;99334.47;5032345;28;19925;-61
2022/05/02 04:38:16;;;;;;;;;;;;;;;12.15;39.90;99336.47;5032786;28;19936;-62
2022/05/02 04:40:42;;;;;;;;;;;;;;;12.35;39.30;99334.00;5031380;28;19925;-61
2022/05/02 04:43:07;;;;;;;;;;;;;;;12.45;38.76;99325.34;5032692;28;20046;-61
2022/05/02 04:45:33;;;;;;;;;;;;;;;12.47;38.83;99331.22;5032341;28;20458;-61
2022/05/02 04:47:58;;;;;;;;;;;;;;;12.47;38.68;99321.41;5032515;28;20382;-61
2022/05/02 04:50:24;;;;;;;;;;;;;;;12.45;38.91;99333.34;5014546;28;20012;-61
2022/05/02 04:52:49;;;;;;;;;;;;;;;12.42;38.58;99331.97;5030952;28;19975;-61
2022/05/02 04:55:15;;;;;;;;;;;;;;;12.56;38.89;99327.06;5031978;28;20287;-62
2022/05/02 04:57:41;;;;;;;;;;;;;;;12.60;38.89;99327.34;5032291;28;20015;-60
2022/05/02 05:00:06;;;;;;;;;;;;;;;12.65;38.30;99332.72;5032386;28;19925;-62
2022/05/02 05:02:32;;;;;;;;;;;;;;;12.61;37.45;99328.94;5032362;28;19975;-60
2022/05/02 05:04:57;;;;;;;;;;;;;;;12.57;38.04;99330.53;5032326;28;19925;-61
2022/05/02 05:07:23;;;;;;;;;;;;;;;12.59;38.16;99328.41;5032157;28;19936;-61
2022/05/02 05:09:48;;;;;;;;;;;;;;;12.56;38.11;99335.03;5030770;28;20405;-61
2022/05/02 05:12:34;;;;;;;;;;;;;;;12.54;38.66;99329.16;5032227;28;20279;-61
2022/05/02 05:17:47;;;;;;;;;;;;;;;12.43;36.40;99319.47;5032276;28;19929;-61
2022/05/02 05:20:12;;;;;;;;;;;;;;;12.32;36.07;99321.22;5031970;28;20005;-61
2022/05/02 05:22:50;;;;;;;;;;;;;;;12.23;35.49;99325.38;5031974;28;19929;-61
2022/05/02 05:25:28;;;;;;;;;;;;;;;12.22;36.21;99323.78;5031773;28;20403;-61
2022/05/02 05:28:13;;;;;;;;;;;;;;;12.20;34.77;99321.38;5032132;28;19937;-61
2022/05/02 05:30:45;;;;;;;;;;;;;;;12.12;33.94;99313.84;5031842;28;20023;-60
2022/05/02 05:33:29;;;;;;;;;;;;;;;12.12;35.27;99310.38;5030584;28;19976;-63
2022/05/02 05:35:58;;;;;;;;;;;;;;;12.17;36.32;99310.44;5031560;28;19934;-60
2022/05/02 05:38:26;;;;;;;;;;;;;;;12.17;37.06;99321.88;5031727;28;20386;-62
2022/05/02 05:40:56;;;;;;;;;;;;;;;12.21;35.09;99324.84;5031589;28;19925;-63
2022/05/02 05:43:21;;;;;;;;;;;;;;;12.20;34.06;99328.53;5030701;28;19936;-62
2022/05/02 05:45:56;;;;;;;;;;;;;;;12.12;33.28;99316.50;5031644;28;20367;-62
2022/05/02 05:48:21;;;;;;;;;;;;;;;12.00;33.91;99321.13;5030377;28;19984;-62
2022/05/02 05:51:07;;;;;;;;;;;;;;;11.97;32.51;99318.97;5031855;28;19925;-64
2022/05/02 05:53:49;;;;;;;;;;;;;;;11.93;32.01;99316.00;5031206;28;20290;-63
2022/05/02 05:56:34;;;;;;;;;;;;;;;11.91;31.56;99312.81;5030454;28;19933;-61
2022/05/02 05:59:00;;;;;;;;;;;;;;;11.90;30.83;99310.41;5031839;28;19936;-62
2022/05/02 06:01:29;;;;;;;;;;;;;;;11.99;30.80;99315.03;5031710;28;19929;-62
2022/05/02 06:04:04;;;;;;;;;;;;;;;12.11;30.45;99312.22;5030338;28;20007;-62
2022/05/02 06:06:30;;;;;;;;;;;;;;;12.13;30.25;99310.13;5030385;28;19936;-62
2022/05/02 06:08:58;;;;;;;;;;;;;;;12.19;30.46;99306.47;5031414;28;20398;-62
2022/05/02 06:11:25;;;;;;;;;;;;;;;12.19;29.89;99309.13;5030196;28;19933;-61
2022/05/02 06:13:52;;;;;;;;;;;;;;;12.16;29.82;99317.63;5031396;28;19995;-61
2022/05/02 06:19:02;;;;;;;;;;;;;;;12.16;29.21;99299.00;5015893;28;19925;-62
2022/05/02 06:21:27;;;;;;;;;;;;;;;12.17;29.73;99303.25;5029844;28;19929;-62
2022/05/02 06:23:53;;;;;;;;;;;;;;;12.17;28.87;99311.22;5031585;28;19925;-63
2022/05/02 06:26:22;;;;;;;;;;;;;;;12.15;29.56;99301.94;5031192;28;19925;-62
2022/05/02 06:28:48;;;;;;;;;;;;;;;12.15;28.34;99304.59;5031548;28;19925;-63
2022/05/02 06:31:25;;;;;;;;;;;;;;;12.21;28.59;99304.38;5034719;28;20305;-62
2022/05/02 06:33:51;;;;;;;;;;;;;;;12.28;28.38;99299.66;5035040;28;20023;-61
2022/05/02 06:36:35;;;;;;;;;;;;;;;12.35;28.53;99298.66;5033618;28;19929;-62
2022/05/02 06:39:07;;;;;;;;;;;;;;;12.35;28.67;99299.47;5034943;28;19925;-62
2022/05/02 06:41:51;;;;;;;;;;;;;;;12.36;29.29;99295.75;5034718;28;19929;-62
2022/05/02 06:44:27;;;;;;;;;;;;;;;12.39;28.96;99292.59;5034126;28;20466;-61
2022/05/02 06:47:00;;;;;;;;;;;;;;;12.40;28.27;99290.75;5034752;28;19925;-61
2022/05/02 06:49:25;;;;;;;;;;;;;;;12.35;29.04;99293.34;5033645;28;19937;-62
2022/05/02 06:51:52;;;;;;;;;;;;;;;12.35;28.85;99290.69;5033460;28;19925;-62
2022/05/02 06:54:30;;;;;;;;;;;;;;;12.34;28.20;99294.41;5034520;28;20279;-62
2022/05/02 06:56:57;;;;;;;;;;;;;;;12.30;28.29;99291.47;5034166;28;19925;-62
2022/05/02 06:59:29;;;;;;;;;;;;;;;12.37;28.74;99294.69;5033161;28;19936;-62
2022/05/02 07:01:57;;;;;;;;;;;;;;;12.14;29.23;99290.47;5034592;28;19925;-62
2022/05/02 07:04:23;;;;;;;;;;;;;;;12.22;29.27;99282.06;5034172;28;20429;-63
2022/05/02 07:06:48;;;;;;;;;;;;;;;12.37;28.77;99288.59;5034089;28;20120;-62
2022/05/02 07:09:16;;;;;;;;;;;;;;;12.48;28.34;99290.28;5034108;28;19933;-62
2022/05/02 07:12:01;;;;;;;;;;;;;;;12.53;28.15;99289.53;4999898;28;19921;-61
2022/05/02 07:14:32;;;;;;;;;;;;;;;12.59;28.06;99280.53;5032841;28;19929;-63
2022/05/02 07:16:57;;;;;;;;;;;;;;;12.79;28.12;99286.03;5032799;28;19925;-63
2022/05/02 07:19:30;;;;;;;;;;;;;;;12.75;27.18;99295.56;4999863;28;19955;-62
2022/05/02 07:22:07;;;;;;;;;;;;;;;12.80;27.94;99282.31;5032729;28;19927;-63
2022/05/02 07:24:48;;;;;;;;;;;;;;;12.83;27.12;99284.47;5034165;28;19929;-62
2022/05/02 07:27:27;;;;;;;;;;;;;;;12.76;27.13;99285.72;5034126;28;19944;-62
2022/05/02 07:29:53;;;;;;;;;;;;;;;12.58;27.32;99287.72;5032658;28;20378;-60
2022/05/02 07:32:21;;;;;;;;;;;;;;;12.51;27.09;99292.44;5016034;28;19925;-61
2022/05/02 07:34:47;;;;;;;;;;;;;;;12.72;26.74;99288.09;5032507;28;20313;-62
2022/05/02 07:37:13;;;;;;;;;;;;;;;12.92;27.14;99274.97;5033831;28;19964;-60
2022/05/02 07:39:39;;;;;;;;;;;;;;;13.04;26.64;99282.75;5033836;28;20022;-63
2022/05/02 07:42:04;;;;;;;;;;;;;;;12.93;27.23;99279.22;5032662;28;19925;-62
2022/05/02 07:44:31;;;;;;;;;;;;;;;12.95;26.94;99285.09;5033766;28;19929;-61
2022/05/02 07:46:58;;;;;;;;;;;;;;;12.89;27.55;99277.34;5033552;28;19971;-63
2022/05/02 07:49:23;;;;;;;;;;;;;;;12.76;26.99;99289.19;5032214;28;19937;-62
2022/05/02 07:51:52;;;;;;;;;;;;;;;12.84;27.14;99286.06;5033525;28;19935;-62
2022/05/02 07:54:21;;;;;;;;;;;;;;;13.09;27.06;99282.00;5033353;28;19937;-62
2022/05/02 07:56:47;;;;;;;;;;;;;;;13.26;25.97;99276.53;5033423;28;20271;-62
2022/05/02 07:59:14;;;;;;;;;;;;;;;13.41;26.65;99263.28;5033467;28;20318;-63
2022/05/02 08:01:40;;;;;;;;;;;;;;;13.60;26.83;99264.47;5015538;28;19925;-62
2022/05/02 08:04:06;;;;;;;;;;;;;;;13.85;26.28;99270.94;5033176;28;19936;-63
2022/05/02 08:06:34;;;;;;;;;;;;;;;14.09;26.47;99264.09;5033131;28;19926;-61
2022/05/02 08:09:23;;;;;;;;;;;;;;;14.14;26.02;99267.81;5031657;28;19952;-62
2022/05/02 08:12:04;;;;;;;;;;;;;;;13.94;26.65;99263.25;5031652;28;19925;-62
2022/05/02 08:14:45;;;;;;;;;;;;;;;13.87;26.77;99263.50;5033070;28;19940;-62
2022/05/02 08:17:21;;;;;;;;;;;;;;;13.66;26.10;99275.16;5031521;28;19932;-61
2022/05/02 08:19:50;;;;;;;;;;;;;;;13.80;26.14;99261.09;5032832;28;20319;-62
2022/05/02 08:27:59;;;;;;;;;;;;;;;14.14;24.75;99254.50;5033012;28;19925;-62
2022/05/02 08:30:25;;;;;;;;;;;;;;;14.37;24.49;99250.53;5031326;28;19971;-63
2022/05/02 08:32:51;;;;;;;;;;;;;;;14.57;24.87;99255.91;5032775;28;19964;-61
2022/05/02 08:35:18;;;;;;;;;;;;;;;14.56;24.22;99250.84;5032348;28;19929;-61
2022/05/02 08:38:02;;;;;;;;;;;;;;;14.47;24.06;99243.34;5031315;28;19925;-63
2022/05/02 08:40:28;;;;;;;;;;;;;;;14.42;24.55;99240.69;5032390;28;19933;-62
2022/05/02 08:43:15;;;;;;;;;;;;;;;14.22;24.46;99240.66;5032245;28;19972;-61
2022/05/02 08:45:59;;;;;;;;;;;;;;;14.14;24.83;99239.31;5030817;28;19943;-63
2022/05/02 08:48:44;;;;;;;;;;;;;;;14.02;25.06;99228.88;5031231;28;19936;-60
2022/05/02 08:51:28;;;;;;;;;;;;;;;14.01;25.30;99231.81;5032306;28;20008;-60
2022/05/02 08:54:00;;;;;;;;;;;;;;;13.98;24.46;99230.50;5030649;28;20429;-64
2022/05/02 08:57:02;;;;;;;;;;;;;;;14.02;24.35;99220.88;5014501;28;19925;-62
2022/05/02 08:59:27;;;;;;;;;;;;;;;14.06;24.97;99221.19;5032066;28;20321;-62
2022/05/02 09:02:08;;;;;;;;;;;;;;;14.08;25.55;99221.69;5032313;28;19932;-60
2022/05/02 09:04:53;;;;;;;;;;;;;;;14.11;25.88;99215.84;5032288;28;19928;-63
2022/05/02 09:07:28;;;;;;;;;;;;;;;14.40;25.77;99218.00;5030689;28;19932;-61
2022/05/02 09:10:05;;;;;;;;;;;;;;;14.46;25.52;99209.72;5032034;28;19936;-62
2022/05/02 09:12:40;;;;;;;;;;;;;;;14.41;25.30;99225.75;5032105;28;20401;-61
2022/05/02 09:15:06;;;;;;;;;;;;;;;14.49;25.36;99211.06;5031699;28;19952;-62
2022/05/02 09:17:44;;;;;;;;;;;;;;;14.60;24.93;99215.38;5031929;28;20370;-61
2022/05/02 09:20:12;;;;;;;;;;;;;;;14.64;24.57;99207.63;5031831;28;19933;-62
2022/05/02 09:22:47;;;;;;;;;;;;;;;14.69;24.32;99197.75;5031905;28;19925;-61
2022/05/02 09:25:12;;;;;;;;;;;;;;;14.76;24.40;99197.47;5032030;28;19928;-62
2022/05/02 09:27:44;;;;;;;;;;;;;;;14.82;23.93;99191.06;5030497;28;20417;-61
2022/05/02 09:30:12;;;;;;;;;;;;;;;14.79;23.04;99193.47;5031823;28;19933;-61
2022/05/02 09:32:48;;;;;;;;;;;;;;;14.62;23.66;99183.91;5032020;28;20341;-60
2022/05/02 09:35:15;;;;;;;;;;;;;;;14.55;23.54;99188.69;5030456;28;19929;-61
2022/05/02 09:37:41;;;;;;;;;;;;;;;14.56;23.65;99181.50;5013981;28;20444;-61
2022/05/02 09:40:12;;;;;;;;;;;;;;;14.68;24.31;99179.38;5031595;28;19955;-61
2022/05/02 09:42:43;;;;;;;;;;;;;;;14.74;23.38;99176.41;5031806;28;19925;-62
2022/05/02 09:51:33;;;;;;;;;;;;;;;14.51;24.34;99176.94;5031519;28;20357;-61
2022/05/02 09:54:06;;;;;;;;;;;;;;;14.38;23.89;99172.94;5030588;28;19929;-63
2022/05/02 09:56:38;;;;;;;;;;;;;;;14.45;23.93;99173.47;5031539;28;19925;-60
2022/05/02 09:59:07;;;;;;;;;;;;;;;14.52;23.55;99160.69;5030221;28;20350;-62
2022/05/02 10:01:34;;;;;;;;;;;;;;;14.56;23.92;99162.81;5031105;28;20352;-61
2022/05/02 10:04:18;;;;;;;;;;;;;;;14.60;24.11;99161.22;5031387;28;19933;-62
2022/05/02 10:06:48;;;;;;;;;;;;;;;14.84;24.28;99161.44;5035338;28;19925;-61
2022/05/02 10:09:49;;;;;;;;;;;;;;;14.83;24.09;99149.19;5033973;28;19991;-63
2022/05/02 10:12:18;;;;;;;;;;;;;;;14.59;23.54;99143.59;5035453;28;19929;-61
2022/05/02 10:14:52;;;;;;;;;;;;;;;14.47;24.14;99146.53;5035348;28;19936;-64
2022/05/02 10:17:28;;;;;;;;;;;;;;;14.44;24.38;99150.56;5035239;28;20424;-63
2022/05/02 10:20:13;;;;;;;;;;;;;;;14.39;23.06;99141.75;5033889;28;20019;-62
2022/05/02 10:22:41;;;;;;;;;;;;;;;14.19;23.24;99131.91;5033881;28;20390;-62
2022/05/02 10:25:30;;;;;;;;;;;;;;;14.09;23.73;99135.38;5035012;28;19979;-62
2022/05/02 10:28:05;;;;;;;;;;;;;;;14.05;23.40;99127.09;5032355;28;19932;-62
2022/05/02 10:30:40;;;;;;;;;;;;;;;14.29;22.66;99127.38;5034896;28;19929;-61
2022/05/02 10:33:05;;;;;;;;;;;;;;;14.49;22.57;99126.53;5033478;28;20378;-61
2022/05/02 10:35:31;;;;;;;;;;;;;;;14.64;22.50;99114.25;5033614;28;19968;-61
2022/05/02 10:37:58;;;;;;;;;;;;;;;14.65;22.83;99115.88;5033651;28;19925;-63
2022/05/02 10:40:29;;;;;;;;;;;;;;;14.55;22.73;99114.00;5034881;28;20015;-61
2022/05/02 10:42:56;;;;;;;;;;;;;;;14.34;23.22;99113.22;5035105;28;20397;-62
2022/05/02 10:45:21;;;;;;;;;;;;;;;14.22;23.84;99104.69;5033691;28;20385;-60
2022/05/02 10:47:51;;;;;;;;;;;;;;;14.16;23.37;99108.44;5033390;28;19925;-61
2022/05/02 10:50:17;;;;;;;;;;;;;;;14.29;23.01;99108.69;5016861;28;19955;-62
2022/05/02 10:52:46;;;;;;;;;;;;;;;14.44;22.56;99104.41;5034780;28;20397;-62
2022/05/02 10:55:32;;;;;;;;;;;;;;;14.55;22.65;99095.34;5034397;28;19929;-61
2022/05/02 10:58:04;;;;;;;;;;;;;;;14.51;22.62;99083.59;5034485;28;19925;-62
2022/05/02 11:00:30;;;;;;;;;;;;;;;14.59;22.47;99080.41;5033078;28;20448;-63
2022/05/02 11:02:56;;;;;;;;;;;;;;;14.61;23.64;99080.91;5034572;28;20432;-61
2022/05/02 11:05:26;;;;;;;;;;;;;;;14.58;22.78;99080.66;5034320;28;19979;-64
2022/05/02 11:07:55;;;;;;;;;;;;;;;14.61;22.99;99080.91;5033126;28;20052;-61
2022/05/02 11:10:26;;;;;;;;;;;;;;;14.69;22.74;99083.03;5033393;28;20398;-62
2022/05/02 11:12:56;;;;;;;;;;;;;;;14.74;22.44;99076.91;5033139;28;19933;-62
2022/05/02 11:15:25;;;;;;;;;;;;;;;14.86;22.79;99071.25;5033916;28;19929;-63
2022/05/02 11:18:08;;;;;;;;;;;;;;;14.92;22.64;99075.50;5034452;28;19932;-62
2022/05/02 11:20:54;;;;;;;;;;;;;;;15.06;22.42;99060.50;5034275;28;19929;-63
2022/05/02 11:23:30;;;;;;;;;;;;;;;15.27;22.30;99055.03;5032572;28;20404;-62
2022/05/02 11:25:56;;;;;;;;;;;;;;;15.32;22.31;99057.66;5034026;28;19972;-62
2022/05/02 11:28:42;;;;;;;;;;;;;;;15.51;22.37;99044.47;5034163;28;20211;-62
2022/05/02 11:31:10;;;;;;;;;;;;;;;15.73;21.69;99036.84;5029602;28;19925;-63
2022/05/02 11:33:42;;;;;;;;;;;;;;;15.89;21.70;99045.53;5033556;28;19929;-62
2022/05/02 11:36:12;;;;;;;;;;;;;;;15.90;21.85;99031.88;5033446;28;19924;-64
2022/05/02 11:38:37;;;;;;;;;;;;;;;15.93;21.31;99022.50;5032715;28;19935;-64
2022/05/02 11:41:19;;;;;;;;;;;;;;;15.93;21.52;99029.72;5033683;28;19924;-62
2022/05/02 11:43:46;;;;;;;;;;;;;;;15.84;21.84;99027.66;5033902;28;19929;-64
2022/05/02 11:46:20;;;;;;;;;;;;;;;15.83;21.60;99025.28;5033689;28;20310;-63
2022/05/02 11:49:15;;;;;;;;;;;;;;;15.84;21.40;99021.53;5032434;28;19936;-62
2022/05/02 11:51:46;;;;;;;;;;;;;;;15.85;21.80;99023.94;5033470;28;19925;-63
2022/05/02 11:54:21;;;;;;;;;;;;;;;15.87;21.27;99015.63;5033366;28;19929;-63
2022/05/02 11:56:59;;;;;;;;;;;;;;;15.75;20.95;99010.63;5015654;28;19925;-62
2022/05/02 11:59:28;;;;;;;;;;;;;;;15.74;21.02;99016.28;5033439;28;20019;-64
2022/05/02 12:02:03;;;;;;;;;;;;;;;16.00;20.93;99016.81;5031943;28;19964;-64
2022/05/02 12:04:30;;;;;;;;;;;;;;;16.31;21.15;99010.09;5033137;28;19929;-63
2022/05/02 12:06:58;;;;;;;;;;;;;;;16.35;21.02;99010.31;5032034;28;20404;-63
2022/05/02 12:09:24;;;;;;;;;;;;;;;16.28;21.57;99012.53;5033329;28;20291;-62
2022/05/02 12:11:50;;;;;;;;;;;;;;;16.27;21.37;99002.94;5033314;28;19925;-62
2022/05/02 12:14:19;;;;;;;;;;;;;;;16.25;21.43;99005.09;5032887;28;19936;-63
2022/05/02 12:17:06;;;;;;;;;;;;;;;16.28;21.33;99002.63;5033163;28;19929;-62
2022/05/02 12:19:32;;;;;;;;;;;;;;;16.37;20.98;99002.03;5033149;28;19929;-64
2022/05/02 12:21:59;;;;;;;;;;;;;;;16.30;21.72;98997.81;5032971;28;20006;-61
2022/05/02 12:24:28;;;;;;;;;;;;;;;16.30;21.60;98997.03;5031809;28;19929;-62
2022/05/02 12:26:54;;;;;;;;;;;;;;;16.34;21.22;98996.16;5032352;28;19925;-62
2022/05/02 12:29:20;;;;;;;;;;;;;;;16.22;21.78;98986.94;5032978;28;19939;-65
2022/05/02 12:31:55;;;;;;;;;;;;;;;16.17;21.14;98984.31;5032909;28;19961;-63
2022/05/02 12:34:20;;;;;;;;;;;;;;;16.19;21.48;98987.50;5032512;28;19944;-61
2022/05/02 12:36:46;;;;;;;;;;;;;;;16.23;21.66;98989.31;5032529;28;19925;-62
2022/05/02 12:39:24;;;;;;;;;;;;;;;16.31;21.95;98982.56;5032759;28;20031;-62
2022/05/02 12:41:50;;;;;;;;;;;;;;;16.40;21.89;98983.53;5032678;28;20028;-61
2022/05/02 12:44:17;;;;;;;;;;;;;;;16.54;22.07;98980.97;5032656;28;19933;-64
2022/05/02 12:46:46;;;;;;;;;;;;;;;16.66;21.64;98975.19;5032579;28;19925;-62
2022/05/02 12:49:19;;;;;;;;;;;;;;;16.70;21.82;98966.28;5032537;28;19929;-63
2022/05/02 12:51:55;;;;;;;;;;;;;;;16.68;21.51;98965.00;5032375;28;19925;-62
2022/05/02 12:54:21;;;;;;;;;;;;;;;16.54;21.11;98960.34;5032445;28;20382;-63
2022/05/02 12:56:47;;;;;;;;;;;;;;;16.41;21.73;98968.25;5032327;28;19932;-63
2022/05/02 13:02:00;;;;;;;;;;;;;;;16.31;22.44;98963.84;5031127;28;20395;-63
2022/05/02 13:04:25;;;;;;;;;;;;;;;16.26;22.37;98953.19;5030982;28;19972;-62
2022/05/02 13:06:51;;;;;;;;;;;;;;;16.24;22.27;98961.50;5030868;28;19960;-62
2022/05/02 13:09:19;;;;;;;;;;;;;;;16.33;22.63;98956.34;5032019;28;20029;-63
2022/05/02 13:11:45;;;;;;;;;;;;;;;16.26;22.54;98948.63;5032221;28;20283;-61
2022/05/02 13:14:21;;;;;;;;;;;;;;;16.16;22.44;98942.63;5032275;28;20378;-62
2022/05/02 13:16:46;;;;;;;;;;;;;;;16.11;22.89;98944.25;5032187;28;19924;-61
2022/05/02 13:19:12;;;;;;;;;;;;;;;16.11;23.19;98946.94;5032262;28;19929;-61
2022/05/02 13:21:37;;;;;;;;;;;;;;;16.11;22.96;98933.56;5031974;28;19925;-63
2022/05/02 13:24:08;;;;;;;;;;;;;;;16.05;23.07;98939.25;5031949;28;20019;-64
2022/05/02 13:26:37;;;;;;;;;;;;;;;16.16;23.64;98940.75;5014747;28;19933;-63